Valparaiso, FL

3:10 PM CST on January 31, 2015 (GMT -0600)
LaRoux Point Boggy Bayou | Change Station
CLOSE
Current Station
Personal Weather Station
Location: Valparaiso, FL
Elevation: 15 ft
Nearby Weather Stations

Elev 15 ft 30.50 °N, 86.49 °W | Updated 7 minutes ago

Mostly Cloudy
Mostly Cloudy
56.8 °F
Feels Like 56.8 °F
N
5.0
Wind Variable Wind from SSE
Gusts 11.0 mph

Today
High -- | Low -- °F
--% Chance of Precip.
Yesterday
High -- | Low -- °F
Precip. -- in
6:37 AM 5:21 PM
Waxing Gibbous, 91% visible
Pressure 30.27 in
Visibility 10.0 miles
Clouds Mostly Cloudy 25000 ft
Dew Point 42 °F
Humidity 59%
Rainfall 0.00 in
Snow Depth Not available.
UV 1.5 out of 12
Pollen 6.70 out of 12
Air Quality Not available.
Flu Activity Not available.
METAR KVPS 312055Z 18006KT 10SM BKN250 15/03 A3025 RMK AO2A SLP248 FU W-N T01450026 56021 $

More Conditions Fewer Conditions

Pressure 30.27 in
Visibility 10.0 miles
Clouds Mostly Cloudy 25000 ft
Dew Point 42 °F
Humidity 59%
Rainfall 0.00 in
Snow Depth Not available.
UV 1.5 out of 12
Pollen 6.70 out of 12
Air Quality Not available.
Flu Activity Not available.
METAR KVPS 312055Z 18006KT 10SM BKN250 15/03 A3025 RMK AO2A SLP248 FU W-N T01450026 56021 $

More Conditions Fewer Conditions

10-Day Weather Forecast

Almanac

Astronomy

Jan. 31, 2015 Rise Set
Actual Time
Civil Twilight
Nautical Twilight
Astronomical Twilight
Moon
Length of Visible Light
Length of Day
Tomorrow will be .
, % of the Moon is Illuminated

Today's Extremes

State Highs State Lows

Community

WunderPhotos

Upload Photos

1,792,203 photos uploaded!

WunderBlogs® & News

Nearby

Air Quality

  Air Quality AQ Index Pollutant
Not available.

Snow Depth

Station Depth Elevation

Earthquake Activity

City Distance Mag. Time & Date
Minimum magnitude displayed is 2.5.

Coastal Water Temperatures

Place Temperature

Nearby Weather Stations